sensor_id;sensor_type;location;lat;lon;timestamp;P1;durP1;ratioP1;P2;durP2;ratioP2
16520;SDS011;8373;48.110;11.522;2022-12-10T00:01:50;112.60;;;37.07;;
16520;SDS011;8373;48.110;11.522;2022-12-10T00:04:18;110.13;;;35.90;;
16520;SDS011;8373;48.110;11.522;2022-12-10T00:06:45;110.53;;;37.37;;
16520;SDS011;8373;48.110;11.522;2022-12-10T00:09:13;106.87;;;37.73;;
16520;SDS011;8373;48.110;11.522;2022-12-10T00:11:42;129.67;;;36.00;;
16520;SDS011;8373;48.110;11.522;2022-12-10T00:14:10;102.70;;;34.50;;
16520;SDS011;8373;48.110;11.522;2022-12-10T00:16:38;103.67;;;37.77;;
16520;SDS011;8373;48.110;11.522;2022-12-10T00:19:06;109.47;;;36.93;;
16520;SDS011;8373;48.110;11.522;2022-12-10T00:21:34;134.57;;;41.93;;
16520;SDS011;8373;48.110;11.522;2022-12-10T00:24:03;143.20;;;42.13;;
16520;SDS011;8373;48.110;11.522;2022-12-10T00:26:31;128.17;;;38.77;;
16520;SDS011;8373;48.110;11.522;2022-12-10T00:29:00;125.27;;;38.60;;
16520;SDS011;8373;48.110;11.522;2022-12-10T00:31:29;108.40;;;37.23;;
16520;SDS011;8373;48.110;11.522;2022-12-10T00:33:58;122.83;;;39.67;;
16520;SDS011;8373;48.110;11.522;2022-12-10T00:36:28;102.30;;;36.67;;
16520;SDS011;8373;48.110;11.522;2022-12-10T00:38:56;122.57;;;36.77;;
16520;SDS011;8373;48.110;11.522;2022-12-10T00:41:23;124.97;;;37.90;;
16520;SDS011;8373;48.110;11.522;2022-12-10T00:43:50;125.90;;;36.37;;
16520;SDS011;8373;48.110;11.522;2022-12-10T00:46:18;130.43;;;36.53;;
16520;SDS011;8373;48.110;11.522;2022-12-10T00:48:45;114.77;;;36.50;;
16520;SDS011;8373;48.110;11.522;2022-12-10T00:51:13;123.27;;;38.57;;
16520;SDS011;8373;48.110;11.522;2022-12-10T00:53:43;123.27;;;41.70;;
16520;SDS011;8373;48.110;11.522;2022-12-10T00:56:11;130.30;;;41.27;;
16520;SDS011;8373;48.110;11.522;2022-12-10T00:58:39;117.90;;;39.20;;
16520;SDS011;8373;48.110;11.522;2022-12-10T01:01:07;131.67;;;39.50;;
16520;SDS011;8373;48.110;11.522;2022-12-10T01:03:36;118.67;;;39.20;;
16520;SDS011;8373;48.110;11.522;2022-12-10T01:06:07;134.90;;;41.80;;
16520;SDS011;8373;48.110;11.522;2022-12-10T01:08:36;122.23;;;38.70;;
16520;SDS011;8373;48.110;11.522;2022-12-10T01:11:04;146.23;;;42.17;;
16520;SDS011;8373;48.110;11.522;2022-12-10T01:13:32;122.30;;;39.83;;
16520;SDS011;8373;48.110;11.522;2022-12-10T01:15:59;133.23;;;38.47;;
16520;SDS011;8373;48.110;11.522;2022-12-10T01:18:27;133.53;;;38.70;;
16520;SDS011;8373;48.110;11.522;2022-12-10T01:20:54;125.80;;;37.73;;
16520;SDS011;8373;48.110;11.522;2022-12-10T01:23:21;114.87;;;36.80;;
16520;SDS011;8373;48.110;11.522;2022-12-10T01:25:48;110.00;;;36.57;;
16520;SDS011;8373;48.110;11.522;2022-12-10T01:28:16;126.10;;;38.17;;
16520;SDS011;8373;48.110;11.522;2022-12-10T01:30:43;123.47;;;40.07;;
16520;SDS011;8373;48.110;11.522;2022-12-10T01:33:10;120.37;;;35.97;;
16520;SDS011;8373;48.110;11.522;2022-12-10T01:35:37;117.67;;;37.27;;
16520;SDS011;8373;48.110;11.522;2022-12-10T01:38:04;116.33;;;37.30;;
16520;SDS011;8373;48.110;11.522;2022-12-10T01:40:36;110.33;;;35.23;;
16520;SDS011;8373;48.110;11.522;2022-12-10T01:43:04;121.67;;;37.80;;
16520;SDS011;8373;48.110;11.522;2022-12-10T01:45:32;116.17;;;36.97;;
16520;SDS011;8373;48.110;11.522;2022-12-10T01:47:59;117.47;;;38.27;;
16520;SDS011;8373;48.110;11.522;2022-12-10T01:50:26;105.90;;;36.17;;
16520;SDS011;8373;48.110;11.522;2022-12-10T01:52:53;101.63;;;34.10;;
16520;SDS011;8373;48.110;11.522;2022-12-10T01:55:38;104.70;;;35.60;;
16520;SDS011;8373;48.110;11.522;2022-12-10T01:58:08;105.90;;;35.33;;
16520;SDS011;8373;48.110;11.522;2022-12-10T02:00:38;95.77;;;34.43;;
16520;SDS011;8373;48.110;11.522;2022-12-10T02:03:12;100.80;;;34.33;;
16520;SDS011;8373;48.110;11.522;2022-12-10T02:05:42;93.17;;;32.90;;
16520;SDS011;8373;48.110;11.522;2022-12-10T02:08:18;100.47;;;34.00;;
16520;SDS011;8373;48.110;11.522;2022-12-10T02:10:54;107.73;;;33.40;;
16520;SDS011;8373;48.110;11.522;2022-12-10T02:13:27;107.73;;;33.07;;
16520;SDS011;8373;48.110;11.522;2022-12-10T02:16:03;107.63;;;34.00;;
16520;SDS011;8373;48.110;11.522;2022-12-10T02:18:35;115.07;;;34.27;;
16520;SDS011;8373;48.110;11.522;2022-12-10T02:21:08;118.30;;;33.50;;
16520;SDS011;8373;48.110;11.522;2022-12-10T02:23:39;116.03;;;36.87;;
16520;SDS011;8373;48.110;11.522;2022-12-10T02:26:14;105.63;;;35.60;;
16520;SDS011;8373;48.110;11.522;2022-12-10T02:28:47;106.80;;;35.20;;
16520;SDS011;8373;48.110;11.522;2022-12-10T02:31:21;109.63;;;36.30;;
16520;SDS011;8373;48.110;11.522;2022-12-10T02:33:53;115.07;;;36.10;;
16520;SDS011;8373;48.110;11.522;2022-12-10T02:36:25;108.67;;;33.20;;
16520;SDS011;8373;48.110;11.522;2022-12-10T02:38:55;110.57;;;35.37;;
16520;SDS011;8373;48.110;11.522;2022-12-10T02:41:27;99.53;;;33.30;;
16520;SDS011;8373;48.110;11.522;2022-12-10T02:43:59;111.20;;;34.70;;
16520;SDS011;8373;48.110;11.522;2022-12-10T02:46:32;117.67;;;34.60;;
16520;SDS011;8373;48.110;11.522;2022-12-10T02:49:01;106.03;;;31.77;;
16520;SDS011;8373;48.110;11.522;2022-12-10T02:51:30;107.43;;;33.40;;
16520;SDS011;8373;48.110;11.522;2022-12-10T02:53:58;109.93;;;34.30;;
16520;SDS011;8373;48.110;11.522;2022-12-10T02:56:27;117.03;;;36.50;;
16520;SDS011;8373;48.110;11.522;2022-12-10T02:59:04;104.93;;;33.77;;
16520;SDS011;8373;48.110;11.522;2022-12-10T03:01:44;104.13;;;35.63;;
16520;SDS011;8373;48.110;11.522;2022-12-10T03:04:20;112.17;;;34.73;;
16520;SDS011;8373;48.110;11.522;2022-12-10T03:06:50;96.13;;;32.63;;
16520;SDS011;8373;48.110;11.522;2022-12-10T03:09:22;104.90;;;36.47;;
16520;SDS011;8373;48.110;11.522;2022-12-10T03:11:55;116.57;;;36.70;;
16520;SDS011;8373;48.110;11.522;2022-12-10T03:14:25;108.97;;;32.97;;
16520;SDS011;8373;48.110;11.522;2022-12-10T03:16:57;116.77;;;37.10;;
16520;SDS011;8373;48.110;11.522;2022-12-10T03:19:26;110.20;;;32.70;;
16520;SDS011;8373;48.110;11.522;2022-12-10T03:21:56;109.03;;;35.53;;
16520;SDS011;8373;48.110;11.522;2022-12-10T03:24:25;95.37;;;33.20;;
16520;SDS011;8373;48.110;11.522;2022-12-10T03:26:53;110.37;;;34.20;;
16520;SDS011;8373;48.110;11.522;2022-12-10T03:29:21;99.50;;;33.40;;
16520;SDS011;8373;48.110;11.522;2022-12-10T03:31:51;105.93;;;33.37;;
16520;SDS011;8373;48.110;11.522;2022-12-10T03:34:21;98.97;;;33.97;;
16520;SDS011;8373;48.110;11.522;2022-12-10T03:36:49;101.13;;;34.30;;
16520;SDS011;8373;48.110;11.522;2022-12-10T03:39:17;102.97;;;33.73;;
16520;SDS011;8373;48.110;11.522;2022-12-10T03:41:44;110.13;;;34.33;;
16520;SDS011;8373;48.110;11.522;2022-12-10T03:44:12;103.30;;;34.33;;
16520;SDS011;8373;48.110;11.522;2022-12-10T03:46:39;92.47;;;32.90;;
16520;SDS011;8373;48.110;11.522;2022-12-10T03:49:06;102.30;;;33.57;;
16520;SDS011;8373;48.110;11.522;2022-12-10T03:51:34;89.63;;;29.93;;
16520;SDS011;8373;48.110;11.522;2022-12-10T03:54:01;89.20;;;31.17;;
16520;SDS011;8373;48.110;11.522;2022-12-10T03:56:28;87.93;;;31.23;;
16520;SDS011;8373;48.110;11.522;2022-12-10T03:58:55;90.90;;;31.90;;
16520;SDS011;8373;48.110;11.522;2022-12-10T04:01:22;89.57;;;30.27;;
16520;SDS011;8373;48.110;11.522;2022-12-10T04:03:49;85.47;;;31.23;;
16520;SDS011;8373;48.110;11.522;2022-12-10T04:06:17;86.10;;;31.00;;
16520;SDS011;8373;48.110;11.522;2022-12-10T04:08:46;90.00;;;31.80;;
16520;SDS011;8373;48.110;11.522;2022-12-10T04:11:14;103.60;;;34.20;;
16520;SDS011;8373;48.110;11.522;2022-12-10T04:13:42;93.73;;;30.30;;
16520;SDS011;8373;48.110;11.522;2022-12-10T04:16:27;85.47;;;30.90;;
16520;SDS011;8373;48.110;11.522;2022-12-10T04:18:55;103.13;;;30.30;;
16520;SDS011;8373;48.110;11.522;2022-12-10T04:21:24;90.33;;;33.30;;
16520;SDS011;8373;48.110;11.522;2022-12-10T04:24:10;81.83;;;30.80;;
16520;SDS011;8373;48.110;11.522;2022-12-10T04:26:56;92.80;;;30.77;;
16520;SDS011;8373;48.110;11.522;2022-12-10T04:29:26;86.20;;;30.10;;
16520;SDS011;8373;48.110;11.522;2022-12-10T04:31:54;92.93;;;30.00;;
16520;SDS011;8373;48.110;11.522;2022-12-10T04:34:22;86.40;;;31.13;;
16520;SDS011;8373;48.110;11.522;2022-12-10T04:36:50;100.40;;;31.03;;
16520;SDS011;8373;48.110;11.522;2022-12-10T04:39:19;85.10;;;29.73;;
16520;SDS011;8373;48.110;11.522;2022-12-10T04:41:46;86.27;;;30.33;;
16520;SDS011;8373;48.110;11.522;2022-12-10T04:44:14;82.53;;;30.40;;
16520;SDS011;8373;48.110;11.522;2022-12-10T04:46:41;85.53;;;31.83;;
16520;SDS011;8373;48.110;11.522;2022-12-10T04:49:08;102.70;;;29.53;;
16520;SDS011;8373;48.110;11.522;2022-12-10T04:51:36;76.93;;;27.43;;
16520;SDS011;8373;48.110;11.522;2022-12-10T04:54:03;85.53;;;29.47;;
16520;SDS011;8373;48.110;11.522;2022-12-10T04:56:32;86.70;;;29.50;;
16520;SDS011;8373;48.110;11.522;2022-12-10T04:59:00;94.93;;;30.40;;
16520;SDS011;8373;48.110;11.522;2022-12-10T05:01:27;81.33;;;28.70;;
16520;SDS011;8373;48.110;11.522;2022-12-10T05:03:57;87.90;;;29.33;;
16520;SDS011;8373;48.110;11.522;2022-12-10T05:06:24;91.13;;;30.57;;
16520;SDS011;8373;48.110;11.522;2022-12-10T05:08:52;76.63;;;29.47;;
16520;SDS011;8373;48.110;11.522;2022-12-10T05:11:19;91.13;;;31.73;;
16520;SDS011;8373;48.110;11.522;2022-12-10T05:13:51;88.60;;;28.87;;
16520;SDS011;8373;48.110;11.522;2022-12-10T05:16:19;77.47;;;27.80;;
16520;SDS011;8373;48.110;11.522;2022-12-10T05:18:47;82.33;;;28.43;;
16520;SDS011;8373;48.110;11.522;2022-12-10T05:21:16;78.80;;;25.57;;
16520;SDS011;8373;48.110;11.522;2022-12-10T05:23:45;77.90;;;28.50;;
16520;SDS011;8373;48.110;11.522;2022-12-10T05:26:13;81.60;;;28.37;;
16520;SDS011;8373;48.110;11.522;2022-12-10T05:28:42;100.23;;;30.43;;
16520;SDS011;8373;48.110;11.522;2022-12-10T05:31:12;97.60;;;28.83;;
16520;SDS011;8373;48.110;11.522;2022-12-10T05:33:40;93.43;;;30.67;;
16520;SDS011;8373;48.110;11.522;2022-12-10T05:36:09;101.13;;;31.67;;
16520;SDS011;8373;48.110;11.522;2022-12-10T05:38:37;93.57;;;33.57;;
16520;SDS011;8373;48.110;11.522;2022-12-10T05:41:05;89.73;;;31.50;;
16520;SDS011;8373;48.110;11.522;2022-12-10T05:43:34;91.03;;;31.97;;
16520;SDS011;8373;48.110;11.522;2022-12-10T05:46:02;94.43;;;32.17;;
16520;SDS011;8373;48.110;11.522;2022-12-10T05:48:31;86.10;;;31.13;;
16520;SDS011;8373;48.110;11.522;2022-12-10T05:51:02;79.93;;;30.73;;
16520;SDS011;8373;48.110;11.522;2022-12-10T05:53:29;91.00;;;30.90;;
16520;SDS011;8373;48.110;11.522;2022-12-10T05:55:59;91.57;;;30.77;;
16520;SDS011;8373;48.110;11.522;2022-12-10T05:58:26;104.47;;;31.20;;
16520;SDS011;8373;48.110;11.522;2022-12-10T06:00:54;100.53;;;32.63;;
16520;SDS011;8373;48.110;11.522;2022-12-10T06:03:21;89.10;;;31.77;;
16520;SDS011;8373;48.110;11.522;2022-12-10T06:05:50;92.13;;;33.83;;
16520;SDS011;8373;48.110;11.522;2022-12-10T06:08:17;91.40;;;32.67;;
16520;SDS011;8373;48.110;11.522;2022-12-10T06:10:44;90.77;;;31.27;;
16520;SDS011;8373;48.110;11.522;2022-12-10T06:13:11;110.63;;;35.73;;
16520;SDS011;8373;48.110;11.522;2022-12-10T06:15:38;92.23;;;31.83;;
16520;SDS011;8373;48.110;11.522;2022-12-10T06:18:06;100.30;;;33.30;;
16520;SDS011;8373;48.110;11.522;2022-12-10T06:20:34;101.50;;;33.60;;
16520;SDS011;8373;48.110;11.522;2022-12-10T06:23:05;92.80;;;33.33;;
16520;SDS011;8373;48.110;11.522;2022-12-10T06:25:37;93.10;;;31.53;;
16520;SDS011;8373;48.110;11.522;2022-12-10T06:28:04;85.83;;;32.30;;
16520;SDS011;8373;48.110;11.522;2022-12-10T06:30:31;85.80;;;30.90;;
16520;SDS011;8373;48.110;11.522;2022-12-10T06:32:58;82.63;;;30.33;;
16520;SDS011;8373;48.110;11.522;2022-12-10T06:35:26;78.17;;;30.70;;
16520;SDS011;8373;48.110;11.522;2022-12-10T06:37:53;76.60;;;30.20;;
16520;SDS011;8373;48.110;11.522;2022-12-10T06:40:21;84.53;;;30.77;;
16520;SDS011;8373;48.110;11.522;2022-12-10T06:42:50;82.27;;;27.70;;
16520;SDS011;8373;48.110;11.522;2022-12-10T06:45:17;76.47;;;27.97;;
16520;SDS011;8373;48.110;11.522;2022-12-10T06:47:44;88.70;;;31.70;;
16520;SDS011;8373;48.110;11.522;2022-12-10T06:50:11;92.07;;;31.80;;
16520;SDS011;8373;48.110;11.522;2022-12-10T06:52:38;87.13;;;32.20;;
16520;SDS011;8373;48.110;11.522;2022-12-10T06:55:05;95.13;;;29.93;;
16520;SDS011;8373;48.110;11.522;2022-12-10T06:57:34;87.10;;;33.07;;
16520;SDS011;8373;48.110;11.522;2022-12-10T07:00:02;84.43;;;30.07;;
16520;SDS011;8373;48.110;11.522;2022-12-10T07:02:29;77.87;;;30.00;;
16520;SDS011;8373;48.110;11.522;2022-12-10T07:04:56;89.53;;;30.97;;
16520;SDS011;8373;48.110;11.522;2022-12-10T07:07:24;75.50;;;29.90;;
16520;SDS011;8373;48.110;11.522;2022-12-10T07:09:51;76.07;;;30.03;;
16520;SDS011;8373;48.110;11.522;2022-12-10T07:12:18;92.30;;;31.43;;
16520;SDS011;8373;48.110;11.522;2022-12-10T07:14:47;84.00;;;32.63;;
16520;SDS011;8373;48.110;11.522;2022-12-10T07:17:14;83.03;;;31.20;;
16520;SDS011;8373;48.110;11.522;2022-12-10T07:19:41;86.03;;;32.83;;
16520;SDS011;8373;48.110;11.522;2022-12-10T07:22:09;86.67;;;33.90;;
16520;SDS011;8373;48.110;11.522;2022-12-10T07:24:36;83.33;;;32.43;;
16520;SDS011;8373;48.110;11.522;2022-12-10T07:27:04;86.37;;;31.97;;
16520;SDS011;8373;48.110;11.522;2022-12-10T07:29:31;101.47;;;34.60;;
16520;SDS011;8373;48.110;11.522;2022-12-10T07:32:00;83.73;;;31.87;;
16520;SDS011;8373;48.110;11.522;2022-12-10T07:34:27;94.83;;;34.17;;
16520;SDS011;8373;48.110;11.522;2022-12-10T07:36:54;92.20;;;35.10;;
16520;SDS011;8373;48.110;11.522;2022-12-10T07:39:21;105.80;;;34.23;;
16520;SDS011;8373;48.110;11.522;2022-12-10T07:41:49;91.57;;;33.57;;
16520;SDS011;8373;48.110;11.522;2022-12-10T07:44:17;97.30;;;35.17;;
16520;SDS011;8373;48.110;11.522;2022-12-10T07:46:46;96.50;;;34.87;;
16520;SDS011;8373;48.110;11.522;2022-12-10T07:49:15;89.30;;;33.20;;
16520;SDS011;8373;48.110;11.522;2022-12-10T07:51:43;89.77;;;33.10;;
16520;SDS011;8373;48.110;11.522;2022-12-10T07:54:10;91.67;;;34.30;;
16520;SDS011;8373;48.110;11.522;2022-12-10T07:56:38;92.87;;;30.33;;
16520;SDS011;8373;48.110;11.522;2022-12-10T07:59:05;94.70;;;30.17;;
16520;SDS011;8373;48.110;11.522;2022-12-10T08:01:32;87.13;;;31.10;;
16520;SDS011;8373;48.110;11.522;2022-12-10T08:03:59;76.73;;;26.57;;
16520;SDS011;8373;48.110;11.522;2022-12-10T08:06:27;73.53;;;27.40;;
16520;SDS011;8373;48.110;11.522;2022-12-10T08:08:55;68.10;;;26.00;;
16520;SDS011;8373;48.110;11.522;2022-12-10T08:11:23;70.37;;;27.47;;
16520;SDS011;8373;48.110;11.522;2022-12-10T08:13:51;71.27;;;26.90;;
16520;SDS011;8373;48.110;11.522;2022-12-10T08:16:19;69.13;;;26.60;;
16520;SDS011;8373;48.110;11.522;2022-12-10T08:18:48;79.90;;;28.70;;
16520;SDS011;8373;48.110;11.522;2022-12-10T08:21:15;77.03;;;26.97;;
16520;SDS011;8373;48.110;11.522;2022-12-10T08:23:45;64.17;;;26.97;;
16520;SDS011;8373;48.110;11.522;2022-12-10T08:26:13;59.80;;;24.43;;
16520;SDS011;8373;48.110;11.522;2022-12-10T08:28:41;55.90;;;25.07;;
16520;SDS011;8373;48.110;11.522;2022-12-10T08:31:08;52.97;;;22.43;;
16520;SDS011;8373;48.110;11.522;2022-12-10T08:33:37;79.53;;;26.80;;
16520;SDS011;8373;48.110;11.522;2022-12-10T08:36:05;58.63;;;24.10;;
16520;SDS011;8373;48.110;11.522;2022-12-10T08:38:33;63.93;;;23.90;;
16520;SDS011;8373;48.110;11.522;2022-12-10T08:41:06;70.20;;;27.20;;
16520;SDS011;8373;48.110;11.522;2022-12-10T08:43:34;61.73;;;26.20;;
16520;SDS011;8373;48.110;11.522;2022-12-10T08:46:01;65.73;;;26.13;;
16520;SDS011;8373;48.110;11.522;2022-12-10T08:48:28;68.23;;;24.43;;
16520;SDS011;8373;48.110;11.522;2022-12-10T08:50:55;61.00;;;25.83;;
16520;SDS011;8373;48.110;11.522;2022-12-10T08:53:23;67.60;;;25.77;;
16520;SDS011;8373;48.110;11.522;2022-12-10T08:55:52;63.77;;;25.77;;
16520;SDS011;8373;48.110;11.522;2022-12-10T08:58:20;66.73;;;25.47;;
16520;SDS011;8373;48.110;11.522;2022-12-10T09:00:48;62.83;;;25.97;;
16520;SDS011;8373;48.110;11.522;2022-12-10T09:03:15;67.93;;;26.47;;
16520;SDS011;8373;48.110;11.522;2022-12-10T09:05:43;76.83;;;29.03;;
16520;SDS011;8373;48.110;11.522;2022-12-10T09:08:10;78.97;;;30.40;;
16520;SDS011;8373;48.110;11.522;2022-12-10T09:10:38;86.33;;;31.53;;
16520;SDS011;8373;48.110;11.522;2022-12-10T09:13:05;80.60;;;31.30;;
16520;SDS011;8373;48.110;11.522;2022-12-10T09:15:34;81.67;;;32.80;;
16520;SDS011;8373;48.110;11.522;2022-12-10T09:18:00;79.80;;;30.13;;
16520;SDS011;8373;48.110;11.522;2022-12-10T09:20:29;77.90;;;31.37;;
16520;SDS011;8373;48.110;11.522;2022-12-10T09:22:56;73.67;;;31.10;;
16520;SDS011;8373;48.110;11.522;2022-12-10T09:25:23;90.30;;;30.40;;
16520;SDS011;8373;48.110;11.522;2022-12-10T09:27:50;88.67;;;31.90;;
16520;SDS011;8373;48.110;11.522;2022-12-10T09:30:17;90.13;;;32.30;;
16520;SDS011;8373;48.110;11.522;2022-12-10T09:32:46;96.73;;;34.40;;
16520;SDS011;8373;48.110;11.522;2022-12-10T09:35:13;73.90;;;30.50;;
16520;SDS011;8373;48.110;11.522;2022-12-10T09:37:39;80.20;;;29.73;;
16520;SDS011;8373;48.110;11.522;2022-12-10T09:40:07;89.70;;;30.10;;
16520;SDS011;8373;48.110;11.522;2022-12-10T09:42:38;79.30;;;30.40;;
16520;SDS011;8373;48.110;11.522;2022-12-10T09:45:17;101.57;;;31.47;;
16520;SDS011;8373;48.110;11.522;2022-12-10T09:47:51;77.23;;;29.80;;
16520;SDS011;8373;48.110;11.522;2022-12-10T09:50:26;85.00;;;31.33;;
16520;SDS011;8373;48.110;11.522;2022-12-10T09:52:57;87.50;;;32.80;;
16520;SDS011;8373;48.110;11.522;2022-12-10T09:55:29;75.10;;;31.60;;
16520;SDS011;8373;48.110;11.522;2022-12-10T09:58:01;86.53;;;30.27;;
16520;SDS011;8373;48.110;11.522;2022-12-10T10:00:32;80.90;;;32.20;;
16520;SDS011;8373;48.110;11.522;2022-12-10T10:03:02;87.00;;;33.00;;
16520;SDS011;8373;48.110;11.522;2022-12-10T10:05:33;89.50;;;33.03;;
16520;SDS011;8373;48.110;11.522;2022-12-10T10:08:03;84.43;;;32.90;;
16520;SDS011;8373;48.110;11.522;2022-12-10T10:10:32;85.10;;;32.23;;
16520;SDS011;8373;48.110;11.522;2022-12-10T10:13:01;84.63;;;31.23;;
16520;SDS011;8373;48.110;11.522;2022-12-10T10:15:43;88.43;;;31.33;;
16520;SDS011;8373;48.110;11.522;2022-12-10T10:18:13;89.37;;;32.30;;
16520;SDS011;8373;48.110;11.522;2022-12-10T10:20:47;95.43;;;32.37;;
16520;SDS011;8373;48.110;11.522;2022-12-10T10:23:15;84.17;;;33.33;;
16520;SDS011;8373;48.110;11.522;2022-12-10T10:25:43;100.83;;;32.17;;
16520;SDS011;8373;48.110;11.522;2022-12-10T10:28:11;100.00;;;31.97;;
16520;SDS011;8373;48.110;11.522;2022-12-10T10:30:40;89.80;;;32.67;;
16520;SDS011;8373;48.110;11.522;2022-12-10T10:33:10;95.97;;;32.03;;
16520;SDS011;8373;48.110;11.522;2022-12-10T10:35:43;96.93;;;31.47;;
16520;SDS011;8373;48.110;11.522;2022-12-10T10:38:16;97.27;;;31.57;;
16520;SDS011;8373;48.110;11.522;2022-12-10T10:40:46;85.47;;;31.97;;
16520;SDS011;8373;48.110;11.522;2022-12-10T10:43:19;79.63;;;31.20;;
16520;SDS011;8373;48.110;11.522;2022-12-10T10:45:49;82.07;;;31.83;;
16520;SDS011;8373;48.110;11.522;2022-12-10T10:48:19;87.40;;;31.30;;
16520;SDS011;8373;48.110;11.522;2022-12-10T10:50:49;92.87;;;29.33;;
16520;SDS011;8373;48.110;11.522;2022-12-10T10:53:21;80.60;;;29.80;;
16520;SDS011;8373;48.110;11.522;2022-12-10T10:55:54;85.67;;;32.93;;
16520;SDS011;8373;48.110;11.522;2022-12-10T10:58:23;101.50;;;30.23;;
16520;SDS011;8373;48.110;11.522;2022-12-10T11:00:58;81.07;;;30.10;;
16520;SDS011;8373;48.110;11.522;2022-12-10T11:03:27;100.83;;;32.63;;
16520;SDS011;8373;48.110;11.522;2022-12-10T11:05:57;79.17;;;28.67;;
16520;SDS011;8373;48.110;11.522;2022-12-10T11:08:26;91.57;;;32.57;;
16520;SDS011;8373;48.110;11.522;2022-12-10T11:10:58;81.50;;;30.23;;
16520;SDS011;8373;48.110;11.522;2022-12-10T11:13:29;101.03;;;33.83;;
16520;SDS011;8373;48.110;11.522;2022-12-10T11:15:58;97.00;;;32.57;;
16520;SDS011;8373;48.110;11.522;2022-12-10T11:18:30;95.83;;;33.07;;
16520;SDS011;8373;48.110;11.522;2022-12-10T11:21:01;87.10;;;30.40;;
16520;SDS011;8373;48.110;11.522;2022-12-10T11:23:31;88.43;;;29.77;;
16520;SDS011;8373;48.110;11.522;2022-12-10T11:26:09;90.53;;;28.40;;
16520;SDS011;8373;48.110;11.522;2022-12-10T11:28:48;87.13;;;32.17;;
16520;SDS011;8373;48.110;11.522;2022-12-10T11:31:31;89.57;;;29.87;;
16520;SDS011;8373;48.110;11.522;2022-12-10T11:34:08;79.63;;;30.30;;
16520;SDS011;8373;48.110;11.522;2022-12-10T11:36:44;92.47;;;31.60;;
16520;SDS011;8373;48.110;11.522;2022-12-10T11:39:24;90.17;;;32.30;;
16520;SDS011;8373;48.110;11.522;2022-12-10T11:42:07;90.43;;;31.50;;
16520;SDS011;8373;48.110;11.522;2022-12-10T11:44:42;91.67;;;33.53;;
16520;SDS011;8373;48.110;11.522;2022-12-10T11:47:23;83.37;;;29.00;;
16520;SDS011;8373;48.110;11.522;2022-12-10T11:50:00;71.97;;;27.43;;
16520;SDS011;8373;48.110;11.522;2022-12-10T11:52:40;87.33;;;31.73;;
16520;SDS011;8373;48.110;11.522;2022-12-10T11:55:21;78.93;;;30.50;;
16520;SDS011;8373;48.110;11.522;2022-12-10T11:57:59;91.07;;;32.77;;
16520;SDS011;8373;48.110;11.522;2022-12-10T12:00:39;88.93;;;31.40;;
16520;SDS011;8373;48.110;11.522;2022-12-10T12:03:32;88.67;;;34.40;;
16520;SDS011;8373;48.110;11.522;2022-12-10T12:06:15;88.00;;;32.97;;
16520;SDS011;8373;48.110;11.522;2022-12-10T12:08:51;92.70;;;33.20;;
16520;SDS011;8373;48.110;11.522;2022-12-10T12:11:34;84.73;;;31.30;;
16520;SDS011;8373;48.110;11.522;2022-12-10T12:14:16;83.30;;;32.70;;
16520;SDS011;8373;48.110;11.522;2022-12-10T12:16:51;92.60;;;31.97;;
16520;SDS011;8373;48.110;11.522;2022-12-10T12:19:25;92.50;;;35.30;;
16520;SDS011;8373;48.110;11.522;2022-12-10T12:21:58;99.33;;;35.53;;
16520;SDS011;8373;48.110;11.522;2022-12-10T12:24:33;104.30;;;33.73;;
16520;SDS011;8373;48.110;11.522;2022-12-10T12:27:02;81.10;;;32.90;;
16520;SDS011;8373;48.110;11.522;2022-12-10T12:29:35;95.87;;;32.43;;
16520;SDS011;8373;48.110;11.522;2022-12-10T12:32:09;95.27;;;33.73;;
16520;SDS011;8373;48.110;11.522;2022-12-10T12:34:44;92.90;;;32.87;;
16520;SDS011;8373;48.110;11.522;2022-12-10T12:37:16;92.10;;;32.23;;
16520;SDS011;8373;48.110;11.522;2022-12-10T12:39:48;82.30;;;29.90;;
16520;SDS011;8373;48.110;11.522;2022-12-10T12:42:20;82.97;;;30.00;;
16520;SDS011;8373;48.110;11.522;2022-12-10T12:44:55;84.97;;;30.90;;
16520;SDS011;8373;48.110;11.522;2022-12-10T12:47:32;81.03;;;29.90;;
16520;SDS011;8373;48.110;11.522;2022-12-10T12:50:10;82.27;;;29.10;;
16520;SDS011;8373;48.110;11.522;2022-12-10T12:52:48;94.50;;;33.13;;
16520;SDS011;8373;48.110;11.522;2022-12-10T12:55:20;95.77;;;33.40;;
16520;SDS011;8373;48.110;11.522;2022-12-10T12:57:53;79.30;;;31.60;;
16520;SDS011;8373;48.110;11.522;2022-12-10T13:00:26;83.60;;;31.40;;
16520;SDS011;8373;48.110;11.522;2022-12-10T13:03:05;100.30;;;33.30;;
16520;SDS011;8373;48.110;11.522;2022-12-10T13:05:47;88.30;;;31.07;;
16520;SDS011;8373;48.110;11.522;2022-12-10T13:08:25;88.87;;;31.37;;
16520;SDS011;8373;48.110;11.522;2022-12-10T13:11:17;92.20;;;33.47;;
16520;SDS011;8373;48.110;11.522;2022-12-10T13:19:53;87.83;;;31.47;;
16520;SDS011;8373;48.110;11.522;2022-12-10T13:22:40;93.53;;;31.90;;
16520;SDS011;8373;48.110;11.522;2022-12-10T13:28:26;94.87;;;32.70;;
16520;SDS011;8373;48.110;11.522;2022-12-10T13:31:06;89.77;;;31.27;;
16520;SDS011;8373;48.110;11.522;2022-12-10T13:33:50;95.67;;;33.47;;
16520;SDS011;8373;48.110;11.522;2022-12-10T13:36:20;90.77;;;33.60;;
16520;SDS011;8373;48.110;11.522;2022-12-10T13:38:56;87.80;;;33.23;;
16520;SDS011;8373;48.110;11.522;2022-12-10T13:41:39;90.23;;;33.03;;
16520;SDS011;8373;48.110;11.522;2022-12-10T13:44:32;88.83;;;32.40;;
16520;SDS011;8373;48.110;11.522;2022-12-10T13:47:04;85.90;;;32.67;;
16520;SDS011;8373;48.110;11.522;2022-12-10T13:49:48;86.67;;;35.03;;
16520;SDS011;8373;48.110;11.522;2022-12-10T13:52:19;82.97;;;31.73;;
16520;SDS011;8373;48.110;11.522;2022-12-10T13:54:59;95.80;;;33.27;;
16520;SDS011;8373;48.110;11.522;2022-12-10T13:57:49;95.10;;;33.53;;
16520;SDS011;8373;48.110;11.522;2022-12-10T14:00:31;101.17;;;32.47;;
16520;SDS011;8373;48.110;11.522;2022-12-10T14:06:09;96.07;;;36.20;;
16520;SDS011;8373;48.110;11.522;2022-12-10T14:08:49;100.73;;;35.57;;
16520;SDS011;8373;48.110;11.522;2022-12-10T14:11:22;98.00;;;34.73;;
16520;SDS011;8373;48.110;11.522;2022-12-10T14:13:53;82.30;;;32.30;;
16520;SDS011;8373;48.110;11.522;2022-12-10T14:16:26;89.63;;;34.10;;
16520;SDS011;8373;48.110;11.522;2022-12-10T14:18:56;91.23;;;32.47;;
16520;SDS011;8373;48.110;11.522;2022-12-10T14:21:25;83.53;;;32.33;;
16520;SDS011;8373;48.110;11.522;2022-12-10T14:23:53;87.20;;;31.93;;
16520;SDS011;8373;48.110;11.522;2022-12-10T14:26:20;84.50;;;30.13;;
16520;SDS011;8373;48.110;11.522;2022-12-10T14:28:54;87.80;;;31.33;;
16520;SDS011;8373;48.110;11.522;2022-12-10T14:31:24;86.43;;;30.80;;
16520;SDS011;8373;48.110;11.522;2022-12-10T14:33:55;93.43;;;33.00;;
16520;SDS011;8373;48.110;11.522;2022-12-10T14:36:27;89.00;;;31.73;;
16520;SDS011;8373;48.110;11.522;2022-12-10T14:38:56;85.13;;;32.53;;
16520;SDS011;8373;48.110;11.522;2022-12-10T14:41:24;94.37;;;34.47;;
16520;SDS011;8373;48.110;11.522;2022-12-10T14:43:55;78.17;;;32.17;;
16520;SDS011;8373;48.110;11.522;2022-12-10T14:46:30;69.37;;;30.17;;
16520;SDS011;8373;48.110;11.522;2022-12-10T14:48:57;77.90;;;32.10;;
16520;SDS011;8373;48.110;11.522;2022-12-10T14:51:25;83.20;;;33.80;;